Time;durP1;ratioP1;P1;durP2;ratioP2;P2;SDS_P1;SDS_P2;PMS_P1;PMS_P2;Temp;Humidity;BMP_temperature;BMP_pressure;BME280_temperature;BME280_humidity;BME280_pressure;Samples;Min_cycle;Max_cycle;Signal;HPM_P1;HPM_P2
2023/05/04 00:02:00;;;;;;;19.40;9.57;;;7.60;99.90;;;;;;4970709;28;20030;-66
2023/05/04 00:04:26;;;;;;;18.33;8.10;;;7.70;99.90;;;;;;4986742;28;20033;-67
2023/05/04 00:06:51;;;;;;;16.73;8.15;;;7.80;99.90;;;;;;4987857;28;20061;-66
2023/05/04 00:09:17;;;;;;;20.80;8.73;;;7.60;99.90;;;;;;4985722;28;20053;-66
2023/05/04 00:11:42;;;;;;;18.13;8.43;;;7.60;99.90;;;;;;4979398;28;20038;-68
2023/05/04 00:14:08;;;;;;;14.73;7.53;;;7.80;99.90;;;;;;4986446;28;20045;-66
2023/05/04 00:16:34;;;;;;;17.77;7.50;;;7.70;99.90;;;;;;4987661;28;20034;-67
2023/05/04 00:19:00;;;;;;;18.38;7.70;;;7.50;99.90;;;;;;4980098;28;20454;-68
2023/05/04 00:21:26;;;;;;;20.58;8.23;;;7.30;99.90;;;;;;4979329;28;20153;-66
2023/05/04 00:23:51;;;;;;;20.45;7.95;;;6.90;99.90;;;;;;4986489;28;20235;-67
2023/05/04 00:26:17;;;;;;;16.70;7.50;;;6.80;99.90;;;;;;4973692;28;20398;-67
2023/05/04 00:28:43;;;;;;;16.98;7.70;;;6.80;99.90;;;;;;4987194;28;20097;-67
2023/05/04 00:31:08;;;;;;;19.33;8.10;;;7.00;99.90;;;;;;4987825;28;20061;-66
2023/05/04 00:33:34;;;;;;;15.10;7.78;;;6.90;99.90;;;;;;4985334;28;20023;-68
2023/05/04 00:36:02;;;;;;;17.45;7.57;;;6.90;99.90;;;;;;4980237;28;20066;-66
2023/05/04 00:38:28;;;;;;;17.63;7.65;;;6.90;99.90;;;;;;4988224;28;20046;-67
2023/05/04 00:40:53;;;;;;;16.35;7.55;;;6.80;99.90;;;;;;4986587;28;20065;-67
2023/05/04 00:43:19;;;;;;;18.83;8.02;;;6.60;99.90;;;;;;4966230;28;20070;-67
2023/05/04 00:45:45;;;;;;;16.67;8.18;;;6.60;99.90;;;;;;4982187;28;20030;-67
2023/05/04 00:48:10;;;;;;;19.20;8.48;;;6.70;99.90;;;;;;4985143;28;20502;-67
2023/05/04 00:50:36;;;;;;;20.95;7.70;;;6.70;99.90;;;;;;4984866;28;20137;-67
2023/05/04 00:53:08;;;;;;;21.65;8.63;;;6.70;99.90;;;;;;4980566;28;20449;-66
2023/05/04 00:55:37;;;;;;;14.80;7.38;;;6.60;99.90;;;;;;4985564;28;20403;-67
2023/05/04 00:58:03;;;;;;;17.50;7.78;;;6.60;99.90;;;;;;4990798;28;20573;-66
2023/05/04 01:00:29;;;;;;;20.67;8.55;;;6.60;99.90;;;;;;4990710;28;20113;-66
2023/05/04 01:02:56;;;;;;;18.02;7.80;;;6.70;99.90;;;;;;4991500;28;20136;-66
2023/05/04 01:05:25;;;;;;;14.68;8.00;;;6.60;99.90;;;;;;4990956;28;20206;-66
2023/05/04 01:08:02;;;;;;;18.83;7.85;;;6.60;99.90;;;;;;4975182;28;20026;-65
2023/05/04 01:10:43;;;;;;;16.98;7.55;;;6.60;99.90;;;;;;4986593;28;20038;-68
2023/05/04 01:13:14;;;;;;;18.80;8.25;;;6.40;99.90;;;;;;4992467;28;20165;-67
2023/05/04 01:15:41;;;;;;;21.58;8.55;;;6.30;99.90;;;;;;4990428;28;20026;-66
2023/05/04 01:18:08;;;;;;;24.13;9.05;;;6.40;99.90;;;;;;4992243;28;20038;-66
2023/05/04 01:20:34;;;;;;;20.52;8.43;;;6.60;99.90;;;;;;4988185;28;20044;-67
2023/05/04 01:23:00;;;;;;;16.05;7.90;;;6.80;99.90;;;;;;4989399;28;20036;-66
2023/05/04 01:25:33;;;;;;;17.60;8.02;;;6.90;99.90;;;;;;4982613;28;20332;-66
2023/05/04 01:28:06;;;;;;;15.65;7.63;;;6.70;99.90;;;;;;4988764;28;20034;-67
2023/05/04 01:30:38;;;;;;;19.38;8.52;;;6.60;99.90;;;;;;4984149;28;20569;-67
2023/05/04 01:33:05;;;;;;;19.13;7.78;;;6.60;99.90;;;;;;4983787;28;20497;-66
2023/05/04 01:35:30;;;;;;;16.55;7.05;;;6.50;99.90;;;;;;4985259;28;20032;-66
2023/05/04 01:37:57;;;;;;;16.00;7.97;;;6.40;99.90;;;;;;4990899;28;20026;-66
2023/05/04 01:40:23;;;;;;;18.30;8.65;;;6.10;99.90;;;;;;4988511;28;20410;-66
2023/05/04 01:42:48;;;;;;;17.67;8.57;;;6.20;99.90;;;;;;4988005;28;20033;-67
2023/05/04 01:45:14;;;;;;;16.52;7.40;;;6.30;99.90;;;;;;4989237;28;21137;-67
2023/05/04 01:47:40;;;;;;;16.08;7.53;;;6.20;99.90;;;;;;4978186;28;20034;-67
2023/05/04 01:50:06;;;;;;;21.30;8.13;;;6.20;99.90;;;;;;4987125;28;20034;-66
2023/05/04 01:52:32;;;;;;;19.95;8.77;;;6.10;99.90;;;;;;4991238;28;20022;-67
2023/05/04 01:54:58;;;;;;;20.48;8.40;;;6.10;99.90;;;;;;4989803;28;20054;-67
2023/05/04 01:57:23;;;;;;;16.75;7.93;;;6.20;99.90;;;;;;4982146;28;20345;-66
2023/05/04 01:59:49;;;;;;;16.88;7.93;;;6.20;99.90;;;;;;4989066;28;20068;-67
2023/05/04 02:02:14;;;;;;;20.10;9.00;;;6.10;99.90;;;;;;4985998;28;20177;-66
2023/05/04 02:04:40;;;;;;;19.05;8.38;;;6.00;99.90;;;;;;4994308;28;20167;-67
2023/05/04 02:07:07;;;;;;;25.80;9.32;;;6.10;99.90;;;;;;4986457;28;20045;-65
2023/05/04 02:09:32;;;;;;;21.05;8.95;;;6.20;99.90;;;;;;4990916;28;20450;-66
2023/05/04 02:11:58;;;;;;;18.13;8.98;;;6.20;99.90;;;;;;4985533;28;20126;-66
2023/05/04 02:14:24;;;;;;;19.80;9.02;;;6.20;99.90;;;;;;4990671;28;20470;-68
2023/05/04 02:16:50;;;;;;;17.65;8.18;;;6.20;99.90;;;;;;4987788;28;20416;-67
2023/05/04 02:19:15;;;;;;;18.70;9.10;;;6.20;99.90;;;;;;4989364;28;20041;-67
2023/05/04 02:21:41;;;;;;;20.00;8.65;;;6.20;99.90;;;;;;4988301;28;20089;-67
2023/05/04 02:24:07;;;;;;;20.50;8.90;;;6.20;99.90;;;;;;4989229;28;20038;-67
2023/05/04 02:26:33;;;;;;;18.42;9.27;;;6.10;99.90;;;;;;4987155;28;20093;-67
2023/05/04 02:28:58;;;;;;;20.65;9.27;;;6.10;99.90;;;;;;4980271;28;20110;-67
2023/05/04 02:31:24;;;;;;;17.92;8.60;;;6.10;99.90;;;;;;4987153;28;20081;-67
2023/05/04 02:33:51;;;;;;;21.88;9.05;;;6.10;99.90;;;;;;4986509;28;20031;-68
2023/05/04 02:36:16;;;;;;;20.50;9.63;;;6.20;99.90;;;;;;4984486;28;20042;-67
2023/05/04 02:38:42;;;;;;;24.77;8.77;;;6.20;99.90;;;;;;4987477;28;20534;-66
2023/05/04 02:41:08;;;;;;;19.58;9.20;;;6.20;99.90;;;;;;4988515;28;20057;-67
2023/05/04 02:43:33;;;;;;;20.15;9.35;;;6.20;99.90;;;;;;4988377;28;20122;-66
2023/05/04 02:45:59;;;;;;;19.17;9.48;;;6.20;99.90;;;;;;4989679;28;20197;-68
2023/05/04 02:48:24;;;;;;;19.52;9.27;;;6.20;99.90;;;;;;4980772;28;20030;-67
2023/05/04 02:50:51;;;;;;;26.48;9.57;;;6.20;99.90;;;;;;4979925;28;20030;-68
2023/05/04 02:53:16;;;;;;;20.60;9.25;;;6.30;99.90;;;;;;4989668;28;20065;-68
2023/05/04 02:55:42;;;;;;;20.98;9.93;;;6.30;99.90;;;;;;4989127;28;20050;-68
2023/05/04 02:58:08;;;;;;;19.65;9.48;;;6.30;99.90;;;;;;4971869;28;20470;-67
2023/05/04 03:00:33;;;;;;;21.08;9.43;;;6.30;99.90;;;;;;4986649;28;20034;-67
2023/05/04 03:02:59;;;;;;;19.58;9.90;;;6.30;99.90;;;;;;4989647;28;20026;-65
2023/05/04 03:05:25;;;;;;;20.58;9.35;;;6.30;99.90;;;;;;4989010;28;20030;-67
2023/05/04 03:07:50;;;;;;;18.83;9.10;;;6.20;99.90;;;;;;4988123;28;20109;-67
2023/05/04 03:10:16;;;;;;;19.42;9.43;;;6.20;99.90;;;;;;4987144;28;20110;-68
2023/05/04 03:12:41;;;;;;;21.63;9.57;;;6.20;99.90;;;;;;4983457;28;20026;-69
2023/05/04 03:15:07;;;;;;;23.63;9.45;;;6.20;99.90;;;;;;4987251;28;20093;-68
2023/05/04 03:17:33;;;;;;;21.10;9.23;;;6.20;99.90;;;;;;4988635;28;20039;-67
2023/05/04 03:19:59;;;;;;;19.30;9.18;;;6.20;99.90;;;;;;4986890;28;20483;-67
2023/05/04 03:22:25;;;;;;;17.70;8.82;;;6.20;99.90;;;;;;4988021;28;20034;-67
2023/05/04 03:24:50;;;;;;;20.13;9.98;;;6.10;99.90;;;;;;4984710;28;20568;-67
2023/05/04 03:27:16;;;;;;;23.92;10.35;;;6.00;99.90;;;;;;4989022;28;20030;-66
2023/05/04 03:29:42;;;;;;;24.60;10.82;;;5.90;99.90;;;;;;4988783;28;20046;-67
2023/05/04 03:32:07;;;;;;;23.67;10.50;;;6.00;99.90;;;;;;4982757;28;20035;-67
2023/05/04 03:34:33;;;;;;;24.38;11.65;;;6.00;99.90;;;;;;4986849;28;20420;-66
2023/05/04 03:36:59;;;;;;;26.13;10.82;;;6.00;99.90;;;;;;4979277;28;20145;-66
2023/05/04 03:39:24;;;;;;;22.60;9.68;;;5.90;99.90;;;;;;4987693;28;20129;-66
2023/05/04 03:41:51;;;;;;;20.85;8.88;;;5.90;99.90;;;;;;4980007;28;20030;-66
2023/05/04 03:44:17;;;;;;;20.38;9.68;;;5.80;99.90;;;;;;4980044;28;20026;-67
2023/05/04 03:46:43;;;;;;;21.05;9.65;;;5.80;99.90;;;;;;4982136;28;20094;-69
2023/05/04 03:49:08;;;;;;;21.02;9.70;;;5.70;99.90;;;;;;4985099;28;20467;-68
2023/05/04 03:51:34;;;;;;;21.70;9.90;;;5.70;99.90;;;;;;4986494;28;20564;-66
2023/05/04 03:54:00;;;;;;;21.85;9.68;;;5.70;99.90;;;;;;4988894;28;20031;-65
2023/05/04 03:56:25;;;;;;;22.40;9.75;;;5.80;99.90;;;;;;4971364;28;20535;-69
2023/05/04 03:58:51;;;;;;;18.77;8.50;;;5.80;99.90;;;;;;4981648;28;20568;-71
2023/05/04 04:01:17;;;;;;;22.17;10.85;;;5.80;99.90;;;;;;4981168;28;20031;-66
2023/05/04 04:03:42;;;;;;;22.83;11.23;;;5.80;99.90;;;;;;4980280;28;20521;-68
2023/05/04 04:06:09;;;;;;;22.98;10.23;;;5.80;99.90;;;;;;4987863;28;20101;-69
2023/05/04 04:08:35;;;;;;;24.60;10.40;;;5.80;99.90;;;;;;4988372;28;20129;-68
2023/05/04 04:11:00;;;;;;;21.08;9.90;;;5.80;99.90;;;;;;4986923;28;20917;-68
2023/05/04 04:13:26;;;;;;;20.23;9.25;;;5.70;99.90;;;;;;4984495;28;20025;-68
2023/05/04 04:15:53;;;;;;;18.65;9.13;;;5.70;99.90;;;;;;4985797;28;20107;-68
2023/05/04 04:18:18;;;;;;;21.92;10.02;;;5.50;99.90;;;;;;4988629;28;20121;-68
2023/05/04 04:20:44;;;;;;;22.85;9.95;;;5.40;99.90;;;;;;4988458;28;20110;-69
2023/05/04 04:23:10;;;;;;;19.92;8.88;;;5.40;99.90;;;;;;4960741;28;20096;-68
2023/05/04 04:25:36;;;;;;;17.90;8.98;;;5.40;99.90;;;;;;4982740;28;20395;-68
2023/05/04 04:28:02;;;;;;;22.20;9.10;;;5.40;99.90;;;;;;4982931;28;20654;-67
2023/05/04 04:30:28;;;;;;;23.27;9.80;;;5.40;99.90;;;;;;4981577;28;20034;-68
2023/05/04 04:32:55;;;;;;;22.70;10.13;;;5.50;99.90;;;;;;4980432;28;20034;-67
2023/05/04 04:35:25;;;;;;;23.63;10.68;;;5.50;99.90;;;;;;4985434;28;20037;-69
2023/05/04 04:37:51;;;;;;;22.17;11.33;;;5.60;99.90;;;;;;4983051;28;20030;-69
2023/05/04 04:40:17;;;;;;;21.50;10.45;;;5.70;99.90;;;;;;4980231;28;20117;-69
2023/05/04 04:42:42;;;;;;;22.00;10.98;;;5.80;99.90;;;;;;4983332;28;20094;-69
2023/05/04 04:45:08;;;;;;;20.25;9.65;;;5.90;99.90;;;;;;4983449;28;20398;-68
2023/05/04 04:47:34;;;;;;;18.13;9.07;;;6.10;99.90;;;;;;4987579;28;20463;-71
2023/05/04 04:50:00;;;;;;;23.02;9.82;;;6.20;99.90;;;;;;4987424;28;20034;-71
2023/05/04 04:52:26;;;;;;;20.90;9.93;;;6.30;99.90;;;;;;4980276;28;20450;-70
2023/05/04 04:54:51;;;;;;;17.70;8.73;;;6.40;99.90;;;;;;4982027;28;20030;-70
2023/05/04 04:57:17;;;;;;;22.70;9.25;;;6.50;99.90;;;;;;4982280;28;20035;-71
2023/05/04 04:59:43;;;;;;;17.23;8.98;;;6.60;99.90;;;;;;4976872;28;20034;-70
2023/05/04 05:02:08;;;;;;;17.35;8.02;;;6.60;99.90;;;;;;4979099;28;20030;-70
2023/05/04 05:04:38;;;;;;;21.05;9.35;;;6.70;99.90;;;;;;4987075;28;20070;-70
2023/05/04 05:07:03;;;;;;;17.35;8.60;;;6.80;99.90;;;;;;4987774;28;20046;-67
2023/05/04 05:09:29;;;;;;;22.13;8.93;;;6.80;99.90;;;;;;4987688;28;20050;-66
2023/05/04 05:11:55;;;;;;;18.02;8.75;;;6.80;99.90;;;;;;4985936;28;20031;-69
2023/05/04 05:14:21;;;;;;;20.67;9.45;;;6.90;99.90;;;;;;4987668;28;20392;-69
2023/05/04 05:16:46;;;;;;;17.35;9.48;;;7.00;99.90;;;;;;4982125;28;20042;-70
2023/05/04 05:19:12;;;;;;;20.90;8.50;;;7.10;99.90;;;;;;4983257;28;20458;-69
2023/05/04 05:21:38;;;;;;;17.98;9.15;;;7.10;99.90;;;;;;4979760;28;20046;-70
2023/05/04 05:24:04;;;;;;;20.63;9.45;;;7.20;99.90;;;;;;4987113;28;20496;-69
2023/05/04 05:26:30;;;;;;;18.20;9.30;;;7.30;99.90;;;;;;4986293;28;20118;-67
2023/05/04 05:28:55;;;;;;;19.17;8.80;;;7.40;99.90;;;;;;4975408;28;20102;-67
2023/05/04 05:31:21;;;;;;;19.67;8.60;;;7.40;99.90;;;;;;4985841;28;20054;-68
2023/05/04 05:33:47;;;;;;;25.05;10.07;;;7.50;99.90;;;;;;4958007;28;20164;-67
2023/05/04 05:36:13;;;;;;;26.15;12.60;;;7.70;99.90;;;;;;4987208;28;20470;-65
2023/05/04 05:38:39;;;;;;;26.52;12.90;;;7.80;99.90;;;;;;4988120;28;20038;-70
2023/05/04 05:41:04;;;;;;;19.10;10.02;;;8.20;99.90;;;;;;4986664;28;20168;-70
2023/05/04 05:43:32;;;;;;;21.27;9.98;;;8.40;99.90;;;;;;4985959;28;20030;-70
2023/05/04 05:45:58;;;;;;;20.92;10.13;;;8.40;99.90;;;;;;4989898;28;20030;-69
2023/05/04 05:48:23;;;;;;;21.98;11.45;;;8.50;99.90;;;;;;4981590;28;20606;-68
2023/05/04 05:50:49;;;;;;;20.48;9.85;;;8.70;99.90;;;;;;4990685;28;20056;-69
2023/05/04 05:53:15;;;;;;;23.02;11.35;;;8.80;99.90;;;;;;4986562;28;20034;-69
2023/05/04 05:55:40;;;;;;;18.98;9.70;;;9.00;99.90;;;;;;4983497;28;20429;-69
2023/05/04 05:58:07;;;;;;;21.02;10.50;;;9.10;99.90;;;;;;4986611;28;20037;-69
2023/05/04 06:00:33;;;;;;;22.70;11.00;;;9.00;99.90;;;;;;4990586;28;20061;-67
2023/05/04 06:02:58;;;;;;;28.38;14.32;;;9.10;99.90;;;;;;4989126;28;20026;-68
2023/05/04 06:05:24;;;;;;;31.98;15.10;;;9.40;99.90;;;;;;4991239;28;20105;-67
2023/05/04 06:07:50;;;;;;;24.83;12.70;;;9.80;99.90;;;;;;4991549;28;20447;-68
2023/05/04 06:10:15;;;;;;;28.50;14.45;;;10.10;99.90;;;;;;4970733;28;20038;-68
2023/05/04 06:12:41;;;;;;;30.20;14.38;;;10.40;99.90;;;;;;4985016;28;20376;-66
2023/05/04 06:15:08;;;;;;;28.38;14.48;;;10.60;99.90;;;;;;4989211;28;20066;-69
2023/05/04 06:17:34;;;;;;;29.58;14.52;;;10.90;99.90;;;;;;4983383;28;20046;-68
2023/05/04 06:19:59;;;;;;;31.85;14.63;;;11.10;99.90;;;;;;4986377;28;20037;-70
2023/05/04 06:22:25;;;;;;;31.45;14.77;;;11.30;99.90;;;;;;4986351;28;20100;-70
2023/05/04 06:24:50;;;;;;;29.33;14.18;;;11.40;99.90;;;;;;4985342;28;20030;-71
2023/05/04 06:27:16;;;;;;;26.55;14.07;;;11.60;99.90;;;;;;4989738;28;20038;-71
2023/05/04 06:29:42;;;;;;;27.70;14.00;;;11.80;99.90;;;;;;4988291;28;20500;-71
2023/05/04 06:32:09;;;;;;;28.73;14.23;;;11.90;99.90;;;;;;4989086;28;20136;-71
2023/05/04 06:34:34;;;;;;;27.10;14.05;;;12.00;99.90;;;;;;4982735;28;20054;-71
2023/05/04 06:37:00;;;;;;;25.27;13.75;;;12.20;99.90;;;;;;4988847;28;20120;-71
2023/05/04 06:39:26;;;;;;;28.95;14.48;;;12.30;99.90;;;;;;4981239;28;20288;-69
2023/05/04 06:41:54;;;;;;;28.65;13.75;;;12.40;99.90;;;;;;4980765;28;20109;-68
2023/05/04 06:44:21;;;;;;;27.27;14.98;;;12.60;99.90;;;;;;4986668;28;20058;-71
2023/05/04 06:46:46;;;;;;;25.35;13.80;;;12.70;99.90;;;;;;4982359;28;20038;-70
2023/05/04 06:49:12;;;;;;;28.25;14.25;;;12.80;99.90;;;;;;4981199;28;20105;-70
2023/05/04 06:51:38;;;;;;;24.67;12.90;;;12.90;99.90;;;;;;4976290;28;20044;-71
2023/05/04 06:54:04;;;;;;;27.65;13.93;;;13.10;99.90;;;;;;4985964;28;20034;-71
2023/05/04 06:56:30;;;;;;;25.05;13.57;;;13.20;99.90;;;;;;4998478;28;20048;-71
2023/05/04 06:58:55;;;;;;;29.92;13.48;;;13.30;99.90;;;;;;4982954;28;20481;-70
2023/05/04 07:01:21;;;;;;;33.40;13.50;;;13.40;99.90;;;;;;4989637;28;20026;-68
2023/05/04 07:03:47;;;;;;;28.77;12.75;;;13.40;99.90;;;;;;4989283;28;20697;-69
2023/05/04 07:06:13;;;;;;;25.73;12.52;;;13.50;99.90;;;;;;4980831;28;20054;-68
2023/05/04 07:08:38;;;;;;;24.02;12.85;;;13.60;99.90;;;;;;4989285;28;20077;-67
2023/05/04 07:11:04;;;;;;;26.27;12.15;;;13.70;99.90;;;;;;4988925;28;20034;-69
2023/05/04 07:13:31;;;;;;;26.98;12.10;;;13.80;99.90;;;;;;4987802;28;20144;-69
2023/05/04 07:15:56;;;;;;;21.85;12.23;;;13.90;99.90;;;;;;4989223;28;20054;-70
2023/05/04 07:18:22;;;;;;;21.33;11.15;;;14.10;99.90;;;;;;4989477;28;20152;-68
2023/05/04 07:20:48;;;;;;;23.20;11.65;;;14.20;99.90;;;;;;4984381;28;20038;-69
2023/05/04 07:23:13;;;;;;;20.50;11.35;;;14.30;99.90;;;;;;4988534;28;20080;-69
2023/05/04 07:25:39;;;;;;;21.92;11.98;;;14.40;99.90;;;;;;4989071;28;20034;-70
2023/05/04 07:28:05;;;;;;;23.25;11.70;;;14.60;99.90;;;;;;4984356;28;21897;-67
2023/05/04 07:30:31;;;;;;;23.92;11.30;;;14.80;99.90;;;;;;4987431;28;20050;-68
2023/05/04 07:32:56;;;;;;;22.73;10.75;;;14.90;99.90;;;;;;4980991;28;20018;-66
2023/05/04 07:35:22;;;;;;;22.60;11.65;;;15.00;99.90;;;;;;4986137;28;20030;-68
2023/05/04 07:37:48;;;;;;;19.77;11.57;;;15.10;99.90;;;;;;4988709;28;20034;-68
2023/05/04 07:40:14;;;;;;;21.25;11.80;;;15.00;99.90;;;;;;4987952;28;20036;-71
2023/05/04 07:42:40;;;;;;;19.95;11.40;;;15.10;99.90;;;;;;4988557;28;20022;-71
2023/05/04 07:45:07;;;;;;;25.88;11.30;;;15.40;99.90;;;;;;4980355;28;20375;-70
2023/05/04 07:47:33;;;;;;;23.05;11.38;;;15.50;99.90;;;;;;4986862;28;20026;-67
2023/05/04 07:49:59;;;;;;;20.15;11.38;;;15.50;99.90;;;;;;4979540;28;20037;-68
2023/05/04 07:52:25;;;;;;;20.13;10.82;;;15.60;99.90;;;;;;4989177;28;20026;-69
2023/05/04 07:54:52;;;;;;;18.10;10.73;;;15.60;99.90;;;;;;4987873;28;20053;-68
2023/05/04 07:57:17;;;;;;;18.13;10.43;;;15.60;99.90;;;;;;4980223;28;20031;-69
2023/05/04 07:59:43;;;;;;;16.73;10.00;;;15.80;99.90;;;;;;4984195;28;20057;-68
2023/05/04 08:02:09;;;;;;;21.45;9.98;;;16.00;99.90;;;;;;4986708;28;20407;-66
2023/05/04 08:04:34;;;;;;;18.25;10.20;;;16.20;99.90;;;;;;4986839;28;20769;-67
2023/05/04 08:07:00;;;;;;;16.83;10.00;;;16.20;99.90;;;;;;4980404;28;20445;-68
2023/05/04 08:09:26;;;;;;;23.27;10.68;;;16.20;99.90;;;;;;4980850;28;20467;-68
2023/05/04 08:11:52;;;;;;;18.63;9.63;;;16.10;99.90;;;;;;4988553;28;20041;-67
2023/05/04 08:14:17;;;;;;;15.98;9.60;;;16.20;99.90;;;;;;4987857;28;20034;-69
2023/05/04 08:16:43;;;;;;;15.30;10.10;;;16.40;99.90;;;;;;4987821;28;20386;-69
2023/05/04 08:19:09;;;;;;;16.80;9.90;;;16.50;99.90;;;;;;4987353;28;20464;-68
2023/05/04 08:21:34;;;;;;;19.92;10.18;;;16.50;99.90;;;;;;4987265;28;20034;-70
2023/05/04 08:24:00;;;;;;;16.35;9.07;;;16.70;99.90;;;;;;4979869;28;20105;-71
2023/05/04 08:26:26;;;;;;;13.40;8.13;;;16.80;99.90;;;;;;4988573;28;20483;-67
2023/05/04 08:28:51;;;;;;;18.95;8.48;;;17.00;99.90;;;;;;4981729;28;20141;-68
2023/05/04 08:31:17;;;;;;;14.32;9.18;;;17.00;99.90;;;;;;4977951;28;20061;-69
2023/05/04 08:33:44;;;;;;;15.38;9.77;;;17.20;99.90;;;;;;4982451;28;20035;-70
2023/05/04 08:36:11;;;;;;;15.25;8.43;;;17.20;99.90;;;;;;4984808;28;20034;-67
2023/05/04 08:38:36;;;;;;;12.23;8.18;;;17.20;99.90;;;;;;4981378;28;20498;-67
2023/05/04 08:41:03;;;;;;;15.48;8.43;;;17.40;99.90;;;;;;4980682;28;20030;-67
2023/05/04 08:43:29;;;;;;;13.68;7.00;;;17.60;99.90;;;;;;4988396;28;20092;-70
2023/05/04 08:45:54;;;;;;;12.50;7.43;;;17.70;99.90;;;;;;4980381;28;20027;-68
2023/05/04 08:48:21;;;;;;;11.15;6.82;;;17.80;99.90;;;;;;4984889;28;20054;-69
2023/05/04 08:50:47;;;;;;;13.88;7.40;;;17.70;99.90;;;;;;4984025;28;20086;-70
2023/05/04 08:53:17;;;;;;;10.07;6.50;;;17.80;99.90;;;;;;4976266;28;20715;-69
2023/05/04 08:55:46;;;;;;;14.57;6.85;;;17.70;99.90;;;;;;4979287;28;20109;-68
2023/05/04 08:58:15;;;;;;;10.57;6.55;;;17.70;99.90;;;;;;4977888;28;20035;-67
2023/05/04 09:00:42;;;;;;;10.38;5.90;;;18.00;99.90;;;;;;4982273;28;20034;-67
2023/05/04 09:03:09;;;;;;;16.70;6.40;;;18.10;99.00;;;;;;4986773;28;20068;-68
2023/05/04 09:05:35;;;;;;;10.10;5.22;;;18.20;99.00;;;;;;4986427;28;20030;-68
2023/05/04 09:08:01;;;;;;;9.70;5.82;;;18.40;99.10;;;;;;4987577;28;20072;-70
2023/05/04 09:10:27;;;;;;;9.45;5.90;;;18.30;96.80;;;;;;4977299;28;20066;-70
2023/05/04 09:12:56;;;;;;;9.25;5.25;;;18.30;97.60;;;;;;4979751;28;20357;-69
2023/05/04 09:15:22;;;;;;;12.60;5.88;;;18.60;98.40;;;;;;4987384;28;20141;-69
2023/05/04 09:18:05;;;;;;;8.15;5.47;;;18.80;98.60;;;;;;4984442;28;20037;-69
2023/05/04 09:20:48;;;;;;;13.15;6.20;;;18.90;95.30;;;;;;4991278;28;20033;-69
2023/05/04 09:23:15;;;;;;;10.63;6.03;;;18.80;95.40;;;;;;4990697;28;20482;-68
2023/05/04 09:25:52;;;;;;;8.95;5.68;;;18.80;96.40;;;;;;4991308;28;20428;-69
2023/05/04 09:28:19;;;;;;;10.48;5.93;;;18.90;93.80;;;;;;4990708;28;20759;-66
2023/05/04 09:30:47;;;;;;;17.20;7.43;;;18.90;96.40;;;;;;4985099;28;20026;-68
2023/05/04 09:33:16;;;;;;;11.75;7.05;;;18.90;97.30;;;;;;4983420;28;20529;-66
2023/05/04 09:35:43;;;;;;;14.23;6.88;;;19.00;97.80;;;;;;4980584;28;20035;-70
2023/05/04 09:38:09;;;;;;;10.90;6.68;;;19.10;95.70;;;;;;4990032;28;20439;-70
2023/05/04 09:40:40;;;;;;;10.98;6.50;;;19.30;96.60;;;;;;4989668;28;20042;-70
2023/05/04 09:43:07;;;;;;;12.85;6.10;;;19.40;95.40;;;;;;4983445;28;20105;-71
2023/05/04 09:45:44;;;;;;;9.50;6.03;;;19.50;94.10;;;;;;4990805;28;20034;-69
2023/05/04 09:48:27;;;;;;;10.27;6.30;;;19.30;92.70;;;;;;4987873;28;20026;-71
2023/05/04 09:50:55;;;;;;;8.95;5.45;;;19.40;94.60;;;;;;4983167;28;20035;-70
2023/05/04 09:53:25;;;;;;;13.57;5.25;;;19.80;92.60;;;;;;4985691;28;20019;-69
2023/05/04 09:56:26;;;;;;;8.93;5.55;;;19.70;90.80;;;;;;4990550;28;20035;-69
2023/05/04 09:58:56;;;;;;;9.20;5.60;;;19.60;90.20;;;;;;4978392;28;20058;-66
2023/05/04 10:01:22;;;;;;;10.07;4.38;;;19.70;90.50;;;;;;4983355;28;20075;-68
2023/05/04 10:03:50;;;;;;;8.02;4.93;;;19.80;86.40;;;;;;4989913;28;20050;-70
2023/05/04 10:06:16;;;;;;;11.52;5.38;;;20.10;85.80;;;;;;4988794;28;20053;-70
2023/05/04 10:08:42;;;;;;;11.70;5.20;;;20.00;83.50;;;;;;4982242;28;20058;-70
2023/05/04 10:11:08;;;;;;;8.65;5.55;;;19.80;86.50;;;;;;4988398;28;20045;-69
2023/05/04 10:13:34;;;;;;;9.82;4.95;;;20.00;86.00;;;;;;4977084;28;20186;-69
2023/05/04 10:16:35;;;;;;;7.25;4.93;;;20.20;86.20;;;;;;4980721;28;20477;-69
2023/05/04 10:19:11;;;;;;;8.63;5.30;;;20.40;84.00;;;;;;4981123;28;20031;-70
2023/05/04 10:21:55;;;;;;;8.00;5.22;;;20.40;83.80;;;;;;4989012;28;20110;-70
2023/05/04 10:24:40;;;;;;;7.80;5.25;;;20.40;81.50;;;;;;4981078;28;20030;-69
2023/05/04 10:27:25;;;;;;;14.38;5.53;;;20.60;80.50;;;;;;4984505;28;20038;-70
2023/05/04 10:29:51;;;;;;;9.85;5.18;;;20.70;81.50;;;;;;4978508;28;20089;-68
2023/05/04 10:32:21;;;;;;;12.23;6.00;;;20.80;78.90;;;;;;4985238;28;20034;-67
2023/05/04 10:34:47;;;;;;;9.00;5.13;;;20.80;81.10;;;;;;4990833;28;20037;-68
2023/05/04 10:37:21;;;;;;;13.38;5.70;;;20.80;78.40;;;;;;4981422;28;20073;-67
2023/05/04 10:39:51;;;;;;;9.15;4.65;;;20.70;76.40;;;;;;4990346;28;20034;-69
2023/05/04 10:42:17;;;;;;;9.38;5.03;;;21.00;76.70;;;;;;4988822;28;20056;-67
2023/05/04 10:44:55;;;;;;;13.77;5.80;;;20.80;76.30;;;;;;4981440;28;20789;-68
2023/05/04 10:47:31;;;;;;;10.70;5.05;;;20.50;74.30;;;;;;4988177;28;20045;-69
2023/05/04 10:50:05;;;;;;;9.65;5.88;;;20.60;77.00;;;;;;4983127;28;20023;-69
2023/05/04 10:52:32;;;;;;;10.70;6.20;;;20.70;75.20;;;;;;4985875;28;20030;-68
2023/05/04 10:55:00;;;;;;;9.27;5.85;;;20.50;79.10;;;;;;4990238;28;20050;-67
2023/05/04 10:57:27;;;;;;;8.73;4.53;;;20.70;77.20;;;;;;4989238;28;20026;-68
2023/05/04 10:59:57;;;;;;;7.07;4.60;;;21.10;76.80;;;;;;4988609;28;20555;-67
2023/05/04 11:02:26;;;;;;;11.15;5.15;;;21.20;78.80;;;;;;4986570;28;20038;-69
2023/05/04 11:05:05;;;;;;;9.10;5.63;;;21.40;73.90;;;;;;4981965;28;20134;-69
2023/05/04 11:07:36;;;;;;;9.63;5.60;;;21.60;73.30;;;;;;4984117;28;20069;-69
2023/05/04 11:10:03;;;;;;;11.63;6.60;;;21.60;71.70;;;;;;4989686;28;20429;-68
2023/05/04 11:12:31;;;;;;;14.95;7.00;;;21.50;73.40;;;;;;4988306;28;21520;-68
2023/05/04 11:15:04;;;;;;;12.60;7.22;;;21.00;72.30;;;;;;4988654;28;20042;-72
2023/05/04 11:17:30;;;;;;;8.63;5.40;;;20.80;75.20;;;;;;5001956;28;20039;-71
2023/05/04 11:19:56;;;;;;;7.75;4.63;;;21.00;74.20;;;;;;4988031;28;20031;-67
2023/05/04 11:22:21;;;;;;;9.55;4.93;;;21.50;71.40;;;;;;4987126;28;20030;-68
2023/05/04 11:24:47;;;;;;;7.65;4.50;;;21.60;70.50;;;;;;4978815;28;21136;-69
2023/05/04 11:27:23;;;;;;;6.43;3.85;;;21.30;68.30;;;;;;4983082;28;20049;-68
2023/05/04 11:29:56;;;;;;;6.60;4.18;;;20.90;67.50;;;;;;4986043;28;20427;-71
2023/05/04 11:32:31;;;;;;;8.15;4.28;;;21.10;60.10;;;;;;4985192;28;20038;-69
2023/05/04 11:34:57;;;;;;;10.63;5.47;;;21.20;63.20;;;;;;4989253;28;20042;-69
2023/05/04 11:37:23;;;;;;;12.55;5.25;;;21.30;64.90;;;;;;4988019;28;20038;-68
2023/05/04 11:39:48;;;;;;;8.38;5.15;;;21.50;63.70;;;;;;4980644;28;20046;-70
2023/05/04 11:42:15;;;;;;;9.45;5.38;;;21.70;63.10;;;;;;4985114;28;20073;-68
2023/05/04 11:44:41;;;;;;;7.80;5.18;;;21.80;65.40;;;;;;4988845;28;20378;-68
2023/05/04 11:47:07;;;;;;;9.02;5.20;;;21.50;64.20;;;;;;4988805;28;20030;-68
2023/05/04 11:49:33;;;;;;;11.93;5.28;;;21.40;66.90;;;;;;4987775;28;20030;-69
2023/05/04 11:52:06;;;;;;;8.98;4.72;;;21.60;65.60;;;;;;4986832;28;20530;-70
2023/05/04 11:54:31;;;;;;;9.07;4.85;;;21.50;65.00;;;;;;4987618;28;20022;-69
2023/05/04 11:56:57;;;;;;;6.88;4.60;;;21.50;61.20;;;;;;4988689;28;20395;-68
2023/05/04 11:59:23;;;;;;;10.80;6.10;;;21.00;64.50;;;;;;4978427;28;20065;-68
2023/05/04 12:01:49;;;;;;;10.63;6.22;;;20.80;72.20;;;;;;4984653;28;20030;-69
2023/05/04 12:04:14;;;;;;;10.07;6.32;;;21.00;75.80;;;;;;4987440;28;20031;-67
2023/05/04 12:06:40;;;;;;;12.13;6.43;;;21.30;74.30;;;;;;4988632;28;20038;-66
2023/05/04 12:09:06;;;;;;;9.13;5.85;;;21.30;66.70;;;;;;4988625;28;20431;-70
2023/05/04 12:11:32;;;;;;;10.23;5.53;;;21.30;69.30;;;;;;4982440;28;20026;-70
2023/05/04 12:14:15;;;;;;;10.85;5.57;;;21.40;73.50;;;;;;4978304;28;20046;-69
2023/05/04 12:16:53;;;;;;;10.98;4.85;;;21.50;65.40;;;;;;4986147;28;20522;-71
2023/05/04 12:19:19;;;;;;;10.80;5.28;;;21.60;68.10;;;;;;4981583;28;20085;-69
2023/05/04 12:21:52;;;;;;;14.32;5.00;;;21.70;65.70;;;;;;4987661;28;20026;-72
2023/05/04 12:24:21;;;;;;;11.70;6.82;;;21.50;68.20;;;;;;4989494;28;20172;-70
2023/05/04 12:26:47;;;;;;;10.82;6.35;;;21.10;67.40;;;;;;4987889;28;20036;-71
2023/05/04 12:29:12;;;;;;;8.93;5.95;;;20.90;69.00;;;;;;4987134;28;20031;-71
2023/05/04 12:31:38;;;;;;;10.52;6.35;;;21.10;69.20;;;;;;4986302;28;20033;-70
2023/05/04 12:34:04;;;;;;;10.95;6.25;;;21.40;68.80;;;;;;4987895;28;20446;-69
2023/05/04 12:36:30;;;;;;;14.77;6.72;;;21.70;71.80;;;;;;4986873;28;20026;-71
2023/05/04 12:38:55;;;;;;;13.07;6.80;;;22.10;68.90;;;;;;4986343;28;20034;-70
2023/05/04 12:41:21;;;;;;;15.50;6.28;;;21.90;65.90;;;;;;4989657;28;20084;-68